Flight Track Log - Related Links

Times and Time Zones

All times are in EDT time to prevent confusion due to time zone crossing. See the DAL2369 flight status page for this flight to view local times or setup timezone preferences in your user account.

Time Position Orientation Groundspeed Altitude Reporting Facility
EDT Latitude Longitude Course Direction KTS MPH feet Rate Location/Type
Thu 03:50:46 PM 28.4333 -81.3167 350° North 142 163 700  Level Orlando TRACON
Thu 03:51:22 PM 28.4000 -81.3333 204° Southwest 128 147 2,300 2,235 Climbing Orlando TRACON
Thu 03:52:28 PM 28.3500 -81.3833 221° Southwest 231 266 4,500 1,840 Climbing Orlando TRACON
Thu 03:53:00 PM 28.7428 -81.3500 North  Level FlightAware Approximate
Thu 03:54:00 PM 28.8529 -81.3539 350° North  Level FlightAware Approximate
Thu 03:55:00 PM 28.9624 -81.3667 North  Level FlightAware Approximate
Thu 03:56:00 PM 29.0718 -81.3810 350° North  Level FlightAware Approximate
Thu 03:58:26 PM 28.6650 -81.5470 221° Southwest 424 488 15,300  Level FlightAware ADS-B
Thu 03:59:50 PM 28.8240 -81.5520 358° North 425 489 17,200 950 Climbing FlightAware ADS-B
Thu 04:00:26 PM 28.8840 -81.5530 359° North 425 489 17,200  Level FlightAware ADS-B
Thu 04:01:14 PM 28.9640 -81.5540 359° North 425 489 17,200  Level FlightAware ADS-B
Thu 04:01:51 PM 29.0260 -81.5560 358° North 425 489 17,200 4,814 Level FlightAware ADS-B
Thu 04:02:40 PM 29.3250 -81.6820 340° North 479 551 24,100 6,000 Climbing FlightAware ADS-B
Thu 04:03:15 PM 29.4090 -81.7010 349° North 489 563 25,600 1,950 Climbing FlightAware ADS-B
Thu 04:04:00 PM 29.5120 -81.7250 349° North 494 568 26,700 1,407 Climbing FlightAware ADS-B
Thu 04:04:36 PM 29.5970 -81.7450 348° North 501 577 27,500 558 Climbing FlightAware ADS-B
Thu 04:05:26 PM 29.6930 -81.7690 348° North 501 577 27,500 945 Level FlightAware ADS-B
Thu 04:07:02 PM 29.9370 -81.8250 349° North 523 602 29,800 1,000 Climbing FlightAware ADS-B
Thu 04:07:44 PM 30.0180 -81.8450 348° North 524 603 29,800 993 Level FlightAware ADS-B
Thu 04:08:24 PM 30.1240 -81.8770 345° North 31,100 1,376 Climbing FlightAware ADS-B
Thu 04:09:33 PM 30.2528 -81.9594 345° North 508 585 32,300 1,023 Climbing Jacksonville Center
Thu 04:10:33 PM 30.3806 -82.0281 335° Northwest 503 579 33,300 1,050 Climbing Jacksonville Center
Thu 04:11:33 PM 30.5186 -82.0775 343° North 503 579 34,400 850 Climbing Jacksonville Center
Thu 04:12:33 PM 30.6672 -82.1367 341° North 509 586 35,000 300 Climbing Jacksonville Center
Thu 04:13:33 PM 30.8053 -82.1839 344° North 509 586 35,000  Level Jacksonville Center
Thu 04:14:33 PM 30.9372 -82.2339 342° North 503 579 35,000  Level Jacksonville Center
Thu 04:15:33 PM 31.0731 -82.2839 343° North 503 579 35,000  Level Jacksonville Center
Thu 04:16:33 PM 31.2111 -82.3339 343° North 503 579 35,000  Level Jacksonville Center
Thu 04:18:24 PM 31.4647 -82.4222 343° North 515 593 35,000  Level Atlanta Center
Thu 04:19:24 PM 31.6008 -82.4711 343° North 515 593 35,000  Level Atlanta Center
Thu 04:20:24 PM 31.7353 -82.5225 342° North 515 593 35,000  Level Atlanta Center
Thu 04:21:24 PM 31.8714 -82.5739 342° North 515 593 35,000  Level Atlanta Center
Thu 04:22:24 PM 32.0078 -82.6231 343° North 515 593 35,000  Level Atlanta Center
Thu 04:23:24 PM 32.1419 -82.6825 339° North 515 593 35,000 -1,200 Level Atlanta Center
Thu 04:24:24 PM 32.2517 -82.7936 319° Northwest 498 573 32,600 -2,150 Descending Atlanta Center
Thu 04:25:24 PM 32.3592 -82.9053 319° Northwest 512 589 30,700 -1,600 Descending Atlanta Center
Thu 04:26:24 PM 32.4686 -83.0197 319° Northwest 512 589 29,400 -1,650 Descending Atlanta Center
Thu 04:27:24 PM 32.5739 -83.1342 318° Northwest 518 596 27,400 -2,050 Descending Atlanta Center
Thu 04:28:24 PM 32.6769 -83.2417 319° Northwest 507 583 25,300 -2,100 Descending Atlanta Center
Thu 04:29:24 PM 32.7800 -83.3469 319° Northwest 495 570 23,200 -1,889 Descending Atlanta Center
Thu 04:35:17 PM 33.2970 -83.9290 319° Northwest 394 453 12,300 -1,686 Descending FlightAware ADS-B
Thu 04:35:59 PM 33.3500 -83.9910 316° Northwest 388 447 12,100 -146 Descending FlightAware ADS-B
Thu 04:36:39 PM 33.4050 -84.0480 319° Northwest 389 448 12,100  Level FlightAware ADS-B
Thu 04:37:09 PM 33.4390 -84.0990 309° West 392 451 12,100  Level FlightAware ADS-B
Thu 04:37:51 PM 33.4680 -84.1780 294° West 388 447 12,100  Level FlightAware ADS-B
Thu 04:38:33 PM 33.5080 -84.2540 302° West 348 400 12,100 -140 Level FlightAware ADS-B
Thu 04:39:17 PM 33.5440 -84.3190 304° West 306 352 11,900 -907 Descending FlightAware ADS-B
Thu 04:39:59 PM 33.5450 -84.3860 271° West 278 320 10,800 -1,886 Descending FlightAware ADS-B
Thu 04:40:27 PM 33.5450 -84.4290 270° West 273 314 9,700 -2,250 Descending FlightAware ADS-B
Thu 04:40:47 PM 33.5450 -84.4580 270° West 269 310 9,000 -2,308 Descending FlightAware ADS-B
Thu 04:41:19 PM 33.5450 -84.5050 270° West 266 306 7,700 -1,966 Descending FlightAware ADS-B
Thu 04:41:45 PM 33.5450 -84.5450 270° West 264 304 7,100 -1,745 Descending FlightAware ADS-B
Thu 04:42:14 PM 33.5450 -84.5860 270° West 260 299 6,100 -2,100 Descending FlightAware ADS-B
Thu 04:42:45 PM 33.5460 -84.6300 272° West 253 291 5,000 -2,233 Descending FlightAware ADS-B
Thu 04:42:57 PM 33.5500 -84.6450 288° West 251 289 4,500 -2,571 Descending FlightAware ADS-B
Thu 04:43:13 PM 33.5630 -84.6620 313° West 250 288 3,800 -2,750 Descending FlightAware ADS-B
Thu 04:43:21 PM 33.5720 -84.6650 344° North 250 288 3,400 -1,050 Descending FlightAware ADS-B
Thu 04:43:53 PM 33.6020 -84.6510 21° North 228 262 3,100 -290 Descending FlightAware ADS-B
Thu 04:44:23 PM 33.6160 -84.6190 62° Northeast 199 229 3,100  Level FlightAware ADS-B
Thu 04:44:37 PM 33.6200 -84.6040 72° East 198 228 3,100  Level FlightAware ADS-B
Thu 04:45:03 PM 33.6200 -84.5760 90° East 192 221 3,100 -517 Level FlightAware ADS-B
Thu 04:45:35 PM 33.6200 -84.5420 90° East 188 216 2,600 -931 Descending FlightAware ADS-B
Thu 04:46:01 PM 33.6200 -84.5170 90° East 165 190 2,200 -824 Descending FlightAware ADS-B
Thu 04:46:26 PM 33.6200 -84.4960 90° East 149 171 1,900 -714 Descending FlightAware ADS-B
Thu 04:46:43 PM 33.6200 -84.4820 90° East 140 161 1,700 -818 Descending FlightAware ADS-B
Thu 04:47:10 PM 33.6200 -84.4620 90° East 136 157 1,300 -720 Descending FlightAware ADS-B
Thu 04:47:33 PM 33.6200 -84.4440 90° East 140 161 1,100 -522 Descending FlightAware ADS-B
Thu 04:47:53 PM 33.6200 -84.4310 90° East 105 121 -3,300 Descending FlightAware ADS-B
Thu 04:48:23 PM 33.6210 -84.4240 80° East 32 37  Level FlightAware ADS-B
Thu 04:48:35 PM 33.6220 -84.4240 360° North 29 33  Level FlightAware ADS-B
Thu 04:48:59 PM 33.6220 -84.4250 270° West 33 38  Level FlightAware ADS-B
Thu 04:49:15 PM 33.6220 -84.4260 270° West 17 20  Level FlightAware ADS-B
Thu 04:49:45 PM 33.6220 -84.4300 270° West 21 24  Level FlightAware ADS-B
Thu 04:50:08 PM 33.6220 -84.4320 270° West 17 20  Level FlightAware ADS-B

Login

Don't have an account? Register now (free) for customized features, flight alerts, and more!